createdAt,value
2023-03-13T00:00:00.214Z,5.5
2023-03-13T00:04:00.196Z,5.5
2023-03-13T00:08:00.196Z,5.5
2023-03-13T00:12:00.177Z,5.6
2023-03-13T00:16:00.187Z,5.7
2023-03-13T00:20:00.190Z,5.7
2023-03-13T00:24:00.212Z,5.8
2023-03-13T00:28:00.212Z,5.9
2023-03-13T00:32:00.301Z,5.9
2023-03-13T00:36:00.231Z,6.0
2023-03-13T00:40:00.216Z,6.0
2023-03-13T00:44:00.203Z,6.0
2023-03-13T00:48:00.174Z,6.0
2023-03-13T00:52:00.215Z,6.0
2023-03-13T00:56:00.168Z,6.0
2023-03-13T01:00:00.221Z,6.1
2023-03-13T01:04:00.206Z,6.1
2023-03-13T01:08:00.198Z,6.1
2023-03-13T01:12:00.183Z,6.1
2023-03-13T01:16:00.281Z,6.0
2023-03-13T01:20:00.194Z,6.1
2023-03-13T01:24:00.213Z,6.1
2023-03-13T01:28:00.275Z,6.1
2023-03-13T01:32:00.207Z,6.1
2023-03-13T01:36:00.240Z,6.1
2023-03-13T01:40:00.200Z,6.1
2023-03-13T01:44:00.220Z,6.1
2023-03-13T01:48:00.202Z,6.0
2023-03-13T01:52:00.214Z,6.1
2023-03-13T01:56:00.173Z,6.1
2023-03-13T02:00:00.230Z,6.1
2023-03-13T02:04:00.196Z,6.2
2023-03-13T02:08:00.210Z,6.2
2023-03-13T02:12:00.191Z,6.2
2023-03-13T02:16:00.274Z,6.3
2023-03-13T02:20:00.215Z,6.2
2023-03-13T02:24:00.192Z,6.2
2023-03-13T02:28:00.208Z,6.2
2023-03-13T02:32:00.214Z,6.2
2023-03-13T02:36:00.283Z,6.2
2023-03-13T02:40:00.247Z,6.2
2023-03-13T02:44:00.195Z,6.2
2023-03-13T02:48:00.228Z,6.2
2023-03-13T02:52:00.224Z,6.3
2023-03-13T02:56:00.188Z,6.3
2023-03-13T03:00:00.224Z,6.3
2023-03-13T03:04:00.244Z,6.3
2023-03-13T03:08:00.228Z,6.3
2023-03-13T03:12:00.214Z,6.5
2023-03-13T03:16:00.317Z,6.5
2023-03-13T03:20:00.188Z,6.4
2023-03-13T03:24:00.203Z,6.4
2023-03-13T03:28:00.198Z,6.5
2023-03-13T03:32:00.294Z,6.5
2023-03-13T03:36:00.227Z,6.7
2023-03-13T03:40:00.196Z,6.7
2023-03-13T03:44:00.185Z,6.6
2023-03-13T03:48:00.212Z,6.7
2023-03-13T03:52:00.165Z,6.7
2023-03-13T03:56:00.179Z,6.7
2023-03-13T04:00:00.213Z,6.8
2023-03-13T04:04:00.183Z,6.7
2023-03-13T04:08:00.187Z,6.7
2023-03-13T04:12:00.189Z,6.7
2023-03-13T04:16:00.196Z,6.8
2023-03-13T04:20:00.219Z,6.9
2023-03-13T04:24:00.207Z,6.9
2023-03-13T04:28:00.214Z,6.9
2023-03-13T04:32:00.191Z,6.9
2023-03-13T04:36:00.344Z,6.9
2023-03-13T04:40:00.188Z,6.9
2023-03-13T04:44:00.224Z,6.9
2023-03-13T04:48:00.212Z,7.2
2023-03-13T04:52:00.208Z,7.3
2023-03-13T04:56:00.188Z,7.3
2023-03-13T05:00:00.218Z,7.3
2023-03-13T05:04:00.209Z,7.3
2023-03-13T05:08:00.189Z,7.3
2023-03-13T05:12:00.219Z,7.2
2023-03-13T05:16:00.235Z,7.2
2023-03-13T05:20:00.241Z,7.1
2023-03-13T05:24:00.221Z,7.1
2023-03-13T05:28:00.212Z,7.2
2023-03-13T05:32:00.203Z,7.2
2023-03-13T05:36:00.250Z,7.1
2023-03-13T05:40:00.241Z,7.2
2023-03-13T05:44:00.208Z,7.2
2023-03-13T05:48:00.195Z,7.1
2023-03-13T05:52:00.227Z,7.1
2023-03-13T05:56:00.195Z,7.1
2023-03-13T06:00:00.218Z,7.1
2023-03-13T06:04:00.380Z,7.2
2023-03-13T06:08:00.193Z,7.2
2023-03-13T06:12:00.245Z,7.2
2023-03-13T06:16:00.234Z,7.2
2023-03-13T06:20:00.196Z,7.3
2023-03-13T06:24:00.203Z,7.3
2023-03-13T06:28:00.207Z,7.3
2023-03-13T06:32:00.363Z,7.4
2023-03-13T06:36:00.282Z,7.4
2023-03-13T06:40:00.204Z,7.4
2023-03-13T06:44:00.193Z,7.5
2023-03-13T06:48:00.199Z,7.4
2023-03-13T06:52:00.195Z,7.5
2023-03-13T06:56:00.208Z,7.6
2023-03-13T07:00:00.186Z,7.6
2023-03-13T07:04:00.364Z,7.7
2023-03-13T07:08:00.212Z,7.7
2023-03-13T07:12:00.229Z,7.8
2023-03-13T07:16:00.290Z,8.0
2023-03-13T07:20:00.360Z,8.0
2023-03-13T07:24:00.225Z,8.0
2023-03-13T07:28:00.225Z,8.1
2023-03-13T07:32:00.372Z,8.1
2023-03-13T07:36:00.284Z,8.1
2023-03-13T07:40:00.242Z,8.1
2023-03-13T07:44:00.214Z,8.1
2023-03-13T07:48:00.193Z,8.1
2023-03-13T07:52:00.207Z,8.1
2023-03-13T07:56:00.192Z,8.2
2023-03-13T08:00:00.216Z,8.2
2023-03-13T08:04:00.225Z,8.4
2023-03-13T08:08:00.225Z,8.4
2023-03-13T08:12:00.207Z,8.4
2023-03-13T08:16:00.179Z,8.5
2023-03-13T08:20:00.212Z,8.5
2023-03-13T08:24:00.187Z,8.5
2023-03-13T08:28:02.400Z,8.6
2023-03-13T08:32:00.200Z,8.6
2023-03-13T08:36:00.292Z,8.6
2023-03-13T08:40:00.189Z,8.7
2023-03-13T08:44:00.200Z,8.7
2023-03-13T08:48:00.192Z,8.8
2023-03-13T08:52:00.206Z,8.8
2023-03-13T08:56:00.211Z,8.8
2023-03-13T09:00:00.206Z,9.0
2023-03-13T09:04:03.496Z,9.0
2023-03-13T09:08:00.209Z,9.1
2023-03-13T09:12:00.187Z,9.2
2023-03-13T09:16:00.251Z,9.2
2023-03-13T09:20:01.224Z,9.3
2023-03-13T09:24:00.222Z,9.4
2023-03-13T09:28:00.215Z,9.4
2023-03-13T09:32:00.191Z,9.5
2023-03-13T09:36:00.252Z,9.6
2023-03-13T09:40:00.235Z,9.5
2023-03-13T09:44:00.204Z,9.5
2023-03-13T09:48:00.191Z,9.6
2023-03-13T09:52:00.199Z,9.6
2023-03-13T09:56:00.187Z,9.8
2023-03-13T10:00:00.229Z,9.8
2023-03-13T10:04:00.262Z,10.0
2023-03-13T10:08:00.205Z,10.0
2023-03-13T10:12:00.221Z,10.0
2023-03-13T10:16:00.251Z,10.0
2023-03-13T10:20:00.189Z,10.0
2023-03-13T10:24:00.199Z,10.0
2023-03-13T10:28:00.190Z,10.2
2023-03-13T10:32:00.258Z,10.3
2023-03-13T10:36:00.275Z,10.6
2023-03-13T10:40:00.193Z,10.6
2023-03-13T10:44:00.211Z,10.7
2023-03-13T10:48:00.184Z,10.7
2023-03-13T10:52:00.224Z,10.7
2023-03-13T10:56:00.164Z,11.0
2023-03-13T11:00:02.001Z,11.2
2023-03-13T11:04:00.238Z,11.3
2023-03-13T11:08:00.221Z,11.6
2023-03-13T11:12:00.203Z,11.7
2023-03-13T11:16:00.334Z,11.7
2023-03-13T11:20:00.189Z,11.9
2023-03-13T11:24:00.205Z,12.2
2023-03-13T11:28:00.192Z,12.3
2023-03-13T11:32:00.363Z,12.4
2023-03-13T11:36:00.312Z,12.8
2023-03-13T11:40:00.213Z,12.9
2023-03-13T11:44:00.216Z,12.9
2023-03-13T11:48:00.192Z,12.9
2023-03-13T11:52:00.193Z,13.5
2023-03-13T11:56:00.205Z,13.7
2023-03-13T12:00:00.222Z,13.6
2023-03-13T12:04:00.211Z,13.5
2023-03-13T12:08:00.239Z,13.4
2023-03-13T12:12:00.201Z,13.4
2023-03-13T12:16:00.187Z,13.7
2023-03-13T12:20:00.231Z,13.8
2023-03-13T12:24:00.239Z,14.2
2023-03-13T12:28:00.306Z,14.7
2023-03-13T12:32:00.223Z,15.6
2023-03-13T12:36:00.236Z,15.7
2023-03-13T12:40:00.196Z,15.9
2023-03-13T12:44:08.761Z,16.1
2023-03-13T12:48:00.253Z,15.8
2023-03-13T12:52:00.209Z,16.1
2023-03-13T12:56:00.189Z,17.3
2023-03-13T13:00:00.246Z,16.7
2023-03-13T13:04:00.267Z,17.7
2023-03-13T13:08:00.192Z,17.0
2023-03-13T13:12:00.244Z,16.7
2023-03-13T13:16:00.226Z,17.5
2023-03-13T13:20:00.266Z,17.6
2023-03-13T13:24:00.198Z,18.2
2023-03-13T13:28:00.256Z,18.3
2023-03-13T13:32:00.387Z,18.0
2023-03-13T13:36:00.315Z,17.5
2023-03-13T13:40:00.282Z,17.7
2023-03-13T13:44:00.221Z,17.6
2023-03-13T13:48:00.237Z,17.6
2023-03-13T13:52:00.233Z,17.2
2023-03-13T13:56:00.192Z,16.9
2023-03-13T14:00:00.224Z,16.3
2023-03-13T14:04:00.208Z,16.0
2023-03-13T14:08:00.234Z,16.0
2023-03-13T14:12:00.221Z,16.0
2023-03-13T14:16:00.264Z,16.3
2023-03-13T14:20:00.246Z,16.3
2023-03-13T14:24:00.233Z,16.5
2023-03-13T14:28:00.250Z,16.5
2023-03-13T14:32:00.197Z,16.5
2023-03-13T14:36:00.303Z,16.3
2023-03-13T14:40:00.245Z,16.2
2023-03-13T14:44:00.254Z,16.4
2023-03-13T14:48:00.232Z,16.7
2023-03-13T14:52:00.242Z,16.6
2023-03-13T14:56:00.222Z,16.6
2023-03-13T15:00:00.226Z,16.2
2023-03-13T15:04:00.308Z,16.2
2023-03-13T15:08:00.249Z,16.0
2023-03-13T15:12:00.250Z,16.0
2023-03-13T15:16:00.292Z,16.0
2023-03-13T15:20:00.253Z,16.0
2023-03-13T15:24:00.266Z,15.9
2023-03-13T15:28:00.248Z,15.8
2023-03-13T15:32:00.313Z,15.7
2023-03-13T15:36:00.257Z,15.7
2023-03-13T15:40:00.206Z,15.6
2023-03-13T15:44:00.174Z,15.4
2023-03-13T15:48:00.207Z,15.2
2023-03-13T15:52:00.194Z,15.1
2023-03-13T15:56:00.189Z,15.2
2023-03-13T16:00:00.200Z,15.1
2023-03-13T16:04:00.224Z,15.1
2023-03-13T16:08:00.196Z,15.0
2023-03-13T16:12:00.210Z,15.1
2023-03-13T16:16:00.221Z,15.0
2023-03-13T16:20:00.256Z,14.9
2023-03-13T16:24:00.205Z,14.9
2023-03-13T16:28:00.248Z,14.7
2023-03-13T16:32:00.252Z,14.6
2023-03-13T16:36:00.286Z,14.5
2023-03-13T16:40:00.235Z,14.3
2023-03-13T16:44:00.208Z,14.3
2023-03-13T16:48:00.245Z,14.3
2023-03-13T16:52:00.243Z,14.1
2023-03-13T16:56:00.222Z,14.2
2023-03-13T17:00:00.201Z,14.1
2023-03-13T17:04:00.275Z,14.1
2023-03-13T17:08:00.249Z,13.9
2023-03-13T17:12:00.246Z,13.8
2023-03-13T17:16:00.274Z,14.0
2023-03-13T17:20:00.263Z,13.9
2023-03-13T17:24:00.171Z,13.7
2023-03-13T17:28:00.241Z,14.0
2023-03-13T17:32:02.784Z,13.9
2023-03-13T17:36:00.230Z,13.9
2023-03-13T17:40:00.329Z,13.8
2023-03-13T17:44:00.197Z,13.8
2023-03-13T17:48:00.192Z,13.9
2023-03-13T17:52:00.224Z,13.9
2023-03-13T17:56:00.222Z,13.7
2023-03-13T18:00:00.317Z,13.7
2023-03-13T18:04:00.186Z,13.9
2023-03-13T18:08:00.168Z,13.9
2023-03-13T18:12:00.184Z,13.9
2023-03-13T18:16:00.269Z,13.9
2023-03-13T18:20:00.348Z,13.9
2023-03-13T18:24:00.181Z,13.8
2023-03-13T18:28:00.259Z,13.8
2023-03-13T18:32:00.212Z,13.9
2023-03-13T18:36:00.287Z,13.9
2023-03-13T18:40:00.206Z,13.8
2023-03-13T18:44:00.259Z,13.8
2023-03-13T18:48:00.197Z,13.9
2023-03-13T18:52:00.260Z,13.8
2023-03-13T18:56:00.181Z,13.8
2023-03-13T19:00:00.218Z,13.7
2023-03-13T19:04:01.168Z,13.8
2023-03-13T19:08:00.228Z,13.7
2023-03-13T19:12:00.217Z,13.7
2023-03-13T19:16:00.186Z,13.7
2023-03-13T19:20:00.256Z,13.4
2023-03-13T19:24:00.243Z,13.5
2023-03-13T19:28:00.216Z,13.6
2023-03-13T19:32:00.283Z,13.8
2023-03-13T19:36:00.345Z,13.8
2023-03-13T19:40:00.204Z,13.6
2023-03-13T19:44:00.246Z,13.6
2023-03-13T19:48:00.240Z,13.4
2023-03-13T19:52:00.254Z,13.4
2023-03-13T19:56:00.230Z,13.6
2023-03-13T20:00:00.210Z,13.5
2023-03-13T20:04:00.246Z,13.5
2023-03-13T20:08:00.188Z,13.8
2023-03-13T20:12:00.202Z,13.7
2023-03-13T20:16:00.289Z,13.7
2023-03-13T20:20:00.242Z,13.7
2023-03-13T20:24:00.222Z,13.4
2023-03-13T20:28:00.245Z,13.5
2023-03-13T20:32:00.259Z,13.4
2023-03-13T20:36:00.312Z,13.4
2023-03-13T20:40:00.239Z,13.4
2023-03-13T20:44:00.203Z,13.5
2023-03-13T20:48:00.230Z,13.6
2023-03-13T20:52:00.196Z,13.6
2023-03-13T20:56:00.214Z,13.5
2023-03-13T21:00:00.253Z,13.3
2023-03-13T21:04:00.191Z,13.3
2023-03-13T21:08:00.244Z,13.3
2023-03-13T21:12:00.196Z,13.4
2023-03-13T21:16:00.247Z,13.5
2023-03-13T21:20:00.182Z,13.5
2023-03-13T21:24:00.217Z,13.6
2023-03-13T21:28:00.243Z,13.5
2023-03-13T21:32:00.239Z,13.5
2023-03-13T21:36:00.255Z,13.4
2023-03-13T21:40:00.209Z,13.5
2023-03-13T21:44:00.179Z,13.4
2023-03-13T21:48:00.253Z,13.4
2023-03-13T21:52:00.182Z,13.4
2023-03-13T21:56:00.180Z,13.4
2023-03-13T22:00:00.268Z,13.4
2023-03-13T22:04:00.237Z,13.3
2023-03-13T22:08:00.249Z,13.2
2023-03-13T22:12:00.231Z,13.1
2023-03-13T22:16:00.187Z,13.1
2023-03-13T22:20:00.180Z,13.1
2023-03-13T22:24:00.178Z,13.1
2023-03-13T22:28:00.222Z,13.1
2023-03-13T22:32:00.183Z,13.0
2023-03-13T22:36:00.339Z,12.7
2023-03-13T22:40:00.264Z,12.8
2023-03-13T22:44:00.179Z,12.9
2023-03-13T22:48:00.229Z,12.8
2023-03-13T22:52:00.188Z,12.7
2023-03-13T22:56:00.162Z,12.6
2023-03-13T23:00:00.316Z,12.6
2023-03-13T23:04:00.190Z,12.3
2023-03-13T23:08:00.182Z,12.6
2023-03-13T23:12:00.201Z,12.6
2023-03-13T23:16:00.165Z,12.6
2023-03-13T23:20:00.186Z,12.5
2023-03-13T23:24:00.225Z,12.2
2023-03-13T23:28:00.163Z,12.3
2023-03-13T23:32:00.194Z,12.1
2023-03-13T23:36:00.240Z,11.9
2023-03-13T23:40:00.170Z,11.9
2023-03-13T23:44:00.223Z,11.8
2023-03-13T23:48:00.227Z,11.9
2023-03-13T23:52:00.185Z,11.9
2023-03-13T23:56:00.190Z,12.0
